createdAt,value
2017-06-06T00:13:17.000Z,15.5
2017-06-06T00:30:00.000Z,15.2
2017-06-06T00:46:43.000Z,15.2
2017-06-06T01:03:26.000Z,14.9
2017-06-06T01:20:08.000Z,14.9
2017-06-06T01:36:50.000Z,14.6
2017-06-06T01:53:32.000Z,14.6
2017-06-06T02:10:15.000Z,14.6
2017-06-06T02:26:57.000Z,14.6
2017-06-06T02:43:39.000Z,14.6
2017-06-06T03:00:21.000Z,14.6
2017-06-06T03:17:04.000Z,14.6
2017-06-06T03:33:46.000Z,14.9
2017-06-06T03:50:28.000Z,14.9
2017-06-06T04:07:10.000Z,14.9
2017-06-06T04:23:54.000Z,15.2
2017-06-06T04:40:37.000Z,15.5
2017-06-06T04:57:20.000Z,15.8
2017-06-06T05:14:03.000Z,16.2
2017-06-06T05:30:48.000Z,16.5
2017-06-06T05:40:50.000Z,17.1
2017-06-06T05:57:34.000Z,17.4
2017-06-06T06:10:58.000Z,18.1
2017-06-06T06:21:01.000Z,18.7
2017-06-06T06:37:47.000Z,19.4
2017-06-06T06:41:09.000Z,20
2017-06-06T06:51:12.000Z,20.6
2017-06-06T07:04:39.000Z,20
2017-06-06T07:21:26.000Z,20
2017-06-06T07:38:12.000Z,19.7
2017-06-06T07:54:59.000Z,20
2017-06-06T08:11:46.000Z,20
2017-06-06T08:25:12.000Z,20.6
2017-06-06T08:42:00.000Z,20.6
2017-06-06T08:58:47.000Z,20
2017-06-06T09:15:33.000Z,19.7
2017-06-06T09:32:19.000Z,19.4
2017-06-06T09:49:07.000Z,19.7
2017-06-06T10:05:53.000Z,19.7
2017-06-06T10:19:17.000Z,19
2017-06-06T10:26:01.000Z,18.4
2017-06-06T10:36:03.000Z,18.4
2017-06-06T10:49:28.000Z,19
2017-06-06T11:02:53.000Z,18.4
2017-06-06T11:09:34.000Z,17.8
2017-06-06T11:26:20.000Z,18.1
2017-06-06T11:43:05.000Z,17.4
2017-06-06T11:56:28.000Z,17.1
2017-06-06T12:13:13.000Z,17.4
2017-06-06T12:23:16.000Z,18.1
2017-06-06T12:29:58.000Z,18.7
2017-06-06T12:43:23.000Z,19
2017-06-06T12:53:26.000Z,19
2017-06-06T13:03:30.000Z,19.7
2017-06-06T13:13:34.000Z,20
2017-06-06T13:30:20.000Z,20
2017-06-06T13:40:25.000Z,20
2017-06-06T13:53:50.000Z,20.3
2017-06-06T14:10:37.000Z,20
2017-06-06T14:27:24.000Z,20.6
2017-06-06T14:40:50.000Z,20
2017-06-06T14:57:37.000Z,19.7
2017-06-06T15:14:22.000Z,19.4
2017-06-06T15:31:10.000Z,19.4
2017-06-06T15:47:55.000Z,19.4
2017-06-06T16:04:41.000Z,19.7
2017-06-06T16:08:03.000Z,20.3
2017-06-06T16:14:45.000Z,20.3
2017-06-06T16:31:33.000Z,20.6
2017-06-06T16:34:54.000Z,20
2017-06-06T16:48:19.000Z,19.4
2017-06-06T16:55:02.000Z,20.3
2017-06-06T16:58:23.000Z,21.3
2017-06-06T17:05:06.000Z,21.3
2017-06-06T17:08:28.000Z,20.3
2017-06-06T17:15:10.000Z,19.4
2017-06-06T17:21:53.000Z,18.7
2017-06-06T17:28:35.000Z,18.1
2017-06-06T17:35:17.000Z,17.4
2017-06-06T17:38:38.000Z,17.4
2017-06-06T17:45:20.000Z,18.4
2017-06-06T17:52:02.000Z,19
2017-06-06T18:02:05.000Z,18.4
2017-06-06T18:08:48.000Z,17.8
2017-06-06T18:25:33.000Z,17.4
2017-06-06T18:35:35.000Z,16.8
2017-06-06T18:48:58.000Z,16.2
2017-06-06T19:05:41.000Z,16.2
2017-06-06T19:22:25.000Z,16.2
2017-06-06T19:39:07.000Z,15.5
2017-06-06T19:52:30.000Z,14.9
2017-06-06T20:09:12.000Z,14.9
2017-06-06T20:25:54.000Z,14.6
2017-06-06T20:42:37.000Z,14.6
2017-06-06T20:59:18.000Z,14.6
2017-06-06T21:16:00.000Z,14.2
2017-06-06T21:32:42.000Z,13.9
2017-06-06T21:49:24.000Z,13.9
2017-06-06T22:06:05.000Z,13.6
2017-06-06T22:22:46.000Z,13.6
2017-06-06T22:39:27.000Z,13.3
2017-06-06T22:56:09.000Z,13.3
2017-06-06T23:12:49.000Z,13
2017-06-06T23:29:30.000Z,13
2017-06-06T23:46:10.000Z,12.6
